createdAt,value
2022-09-15T00:20:43.752Z,19.89
2022-09-15T00:23:11.507Z,19.86
2022-09-15T01:13:58.798Z,20.00
2022-09-15T01:16:31.242Z,20.07
2022-09-15T01:19:16.396Z,20.11
2022-09-15T01:21:54.641Z,20.15
2022-09-15T01:24:36.679Z,20.19
2022-09-15T01:30:59.827Z,20.27
2022-09-15T01:33:26.317Z,20.31
2022-09-15T03:21:55.489Z,20.39
2022-09-15T03:24:25.754Z,20.37
2022-09-15T03:27:03.613Z,20.36
2022-09-15T03:29:37.453Z,20.35
2022-09-15T03:32:29.163Z,20.36
2022-09-15T03:35:10.051Z,20.36
2022-09-15T03:38:01.109Z,20.37
2022-09-15T03:40:30.265Z,20.37
2022-09-15T03:43:05.076Z,20.37
2022-09-15T03:46:06.151Z,20.37
2022-09-15T03:48:39.466Z,20.36
2022-09-15T03:51:13.578Z,20.34
2022-09-15T03:53:45.500Z,20.32
2022-09-15T03:56:25.876Z,20.32
2022-09-15T03:58:56.790Z,20.31
2022-09-15T04:01:28.345Z,20.31
2022-09-15T04:03:55.862Z,20.30
2022-09-15T04:06:29.814Z,20.30
2022-09-15T04:09:02.631Z,20.28
2022-09-15T04:11:37.173Z,20.26
2022-09-15T04:14:32.427Z,20.22
2022-09-15T04:17:01.598Z,20.19
2022-09-15T04:19:34.958Z,20.15
2022-09-15T04:22:17.014Z,20.13
2022-09-15T04:24:56.655Z,20.09
2022-09-15T04:27:28.650Z,20.07
2022-09-15T04:30:01.818Z,20.04
2022-09-15T04:32:35.339Z,20.01
2022-09-15T04:35:06.181Z,20.00
2022-09-15T04:37:34.456Z,19.98
2022-09-15T04:40:13.609Z,19.97
2022-09-15T04:42:42.785Z,19.94
2022-09-15T04:45:19.278Z,19.92
2022-09-15T04:47:52.843Z,19.87
2022-09-15T04:50:22.236Z,19.84
2022-09-15T04:52:54.640Z,19.82
2022-09-15T04:55:26.921Z,19.80
2022-09-15T04:57:59.795Z,19.81
2022-09-15T05:00:26.640Z,19.82
2022-09-15T05:02:54.594Z,19.83
2022-09-15T05:05:24.934Z,19.85
2022-09-15T05:07:53.354Z,19.87
2022-09-15T05:10:32.641Z,19.87
2022-09-15T05:13:04.095Z,19.88
2022-09-15T05:15:31.309Z,19.89
2022-09-15T05:18:01.188Z,19.90
2022-09-15T05:20:31.012Z,19.92
2022-09-15T05:22:57.670Z,19.94
2022-09-15T05:25:27.713Z,19.94
2022-09-15T05:28:00.305Z,19.94
2022-09-15T05:30:38.605Z,19.95
2022-09-15T05:33:09.250Z,19.96
2022-09-15T05:35:36.557Z,19.97
2022-09-15T05:38:03.201Z,20.00
2022-09-15T05:40:30.269Z,20.01
2022-09-15T05:43:00.027Z,20.00
2022-09-15T05:45:26.749Z,20.00
2022-09-15T05:47:55.685Z,20.00
2022-09-15T05:50:25.993Z,19.99
2022-09-15T05:52:53.872Z,19.97
2022-09-15T05:55:20.778Z,19.96
2022-09-15T05:57:48.366Z,19.95
2022-09-15T06:00:15.333Z,19.95
2022-09-15T06:02:42.749Z,19.95
2022-09-15T06:05:37.267Z,19.94
2022-09-15T06:08:05.480Z,19.93
2022-09-15T06:10:36.034Z,19.90
2022-09-15T06:13:06.801Z,19.88
2022-09-15T06:15:58.104Z,19.89
2022-09-15T06:18:26.420Z,19.91
2022-09-15T06:20:54.825Z,19.95
2022-09-15T06:23:50.542Z,20.00
2022-09-15T06:26:18.405Z,20.11
2022-09-15T06:38:42.408Z,20.33
2022-09-15T06:45:15.125Z,20.53
2022-09-15T06:47:41.774Z,20.64
2022-09-15T06:50:33.839Z,20.73
2022-09-15T07:00:39.690Z,21.04
2022-09-15T07:03:10.166Z,21.06
2022-09-15T07:05:46.241Z,21.12
2022-09-15T07:08:13.560Z,21.15
2022-09-15T07:10:45.909Z,21.15
2022-09-15T07:13:16.496Z,21.15
2022-09-15T07:15:52.221Z,21.11
2022-09-15T07:18:22.520Z,21.08
2022-09-15T07:20:49.974Z,21.07
2022-09-15T07:23:19.980Z,21.08
2022-09-15T07:26:36.945Z,21.11
2022-09-15T07:29:04.996Z,21.17
2022-09-15T07:31:32.358Z,21.24
2022-09-15T07:34:24.136Z,21.25
2022-09-15T07:36:51.245Z,21.25
2022-09-15T07:39:18.131Z,21.22
2022-09-15T07:42:10.255Z,21.17
2022-09-15T07:44:38.034Z,21.10
2022-09-15T07:47:08.665Z,21.04
2022-09-15T07:49:35.446Z,21.04
2022-09-15T07:52:52.068Z,21.04
2022-09-15T07:55:19.301Z,21.07
2022-09-15T07:58:03.305Z,21.13
2022-09-15T08:00:35.092Z,21.24
2022-09-15T08:03:07.530Z,21.48
2022-09-15T08:05:46.063Z,21.68
2022-09-15T08:08:16.027Z,21.95
2022-09-15T08:10:47.449Z,22.21
2022-09-15T08:13:28.217Z,22.48
2022-09-15T08:16:16.731Z,22.70
2022-09-15T08:19:09.757Z,22.88
2022-09-15T08:21:40.268Z,23.02
2022-09-15T08:24:18.167Z,23.11
2022-09-15T08:26:58.015Z,23.11
2022-09-15T08:29:29.915Z,23.06
2022-09-15T08:32:12.510Z,23.08
2022-09-15T08:34:49.403Z,23.20
2022-09-15T08:37:21.650Z,23.24
2022-09-15T08:39:56.191Z,23.24
2022-09-15T08:42:30.142Z,23.31
2022-09-15T08:45:22.327Z,23.54
2022-09-15T08:47:58.225Z,23.78
2022-09-15T08:50:51.657Z,23.99
2022-09-15T08:53:45.130Z,24.10
2022-09-15T08:56:17.704Z,24.15
2022-09-15T08:59:15.590Z,24.19
2022-09-15T09:02:19.436Z,24.26
2022-09-15T09:05:04.055Z,24.30
2022-09-15T09:07:57.410Z,24.30
2022-09-15T09:10:30.342Z,24.26
2022-09-15T09:13:02.923Z,24.16
2022-09-15T09:15:47.973Z,24.09
2022-09-15T09:18:35.550Z,24.06
2022-09-15T09:21:13.659Z,24.05
2022-09-15T09:24:07.675Z,23.98
2022-09-15T09:26:38.844Z,23.99
2022-09-15T09:29:37.532Z,24.03
2022-09-15T09:32:22.249Z,24.06
2022-09-15T09:34:57.513Z,24.09
2022-09-15T09:37:24.800Z,24.09
2022-09-15T09:39:52.643Z,24.15
2022-09-15T09:42:21.813Z,24.27
2022-09-15T09:44:48.474Z,24.37
2022-09-15T10:05:18.903Z,24.89
2022-09-15T10:07:48.926Z,24.84
2022-09-15T10:10:23.573Z,24.83
2022-09-15T10:12:56.720Z,24.78
2022-09-15T10:15:26.505Z,24.70
2022-09-15T10:17:56.324Z,24.61
2022-09-15T10:20:23.942Z,24.56
2022-09-15T10:22:51.145Z,24.62
2022-09-15T11:05:38.624Z,26.32
2022-09-15T11:13:02.143Z,26.47
2022-09-15T11:15:31.717Z,26.60
2022-09-15T11:17:58.302Z,26.65
2022-09-15T11:20:34.319Z,26.60
2022-09-15T11:23:13.314Z,26.52
2022-09-15T11:25:45.210Z,26.47
2022-09-15T11:28:11.945Z,26.47
2022-09-15T11:30:47.754Z,26.36
2022-09-15T11:33:21.952Z,26.26
2022-09-15T11:35:48.609Z,26.23
2022-09-15T11:38:18.123Z,26.14
2022-09-15T11:40:57.544Z,26.05
2022-09-15T11:43:56.982Z,26.01
2022-09-15T11:46:35.342Z,25.95
2022-09-15T11:49:11.127Z,25.89
2022-09-15T11:51:48.163Z,25.76
2022-09-15T11:54:26.035Z,25.69
2022-09-15T11:56:55.945Z,25.64
2022-09-15T11:59:29.356Z,25.62
2022-09-15T12:02:11.106Z,25.56
2022-09-15T12:04:44.568Z,25.47
2022-09-15T12:07:13.789Z,25.44
2022-09-15T12:09:41.223Z,25.44
2022-09-15T12:12:16.053Z,25.42
2022-09-15T12:14:43.885Z,25.46
2022-09-15T12:17:28.871Z,25.55
2022-09-15T12:20:00.856Z,25.63
2022-09-15T12:22:39.478Z,25.60
2022-09-15T12:25:26.126Z,25.54
2022-09-15T12:28:14.014Z,25.59
2022-09-15T12:30:41.215Z,25.61
2022-09-15T12:33:31.080Z,25.61
2022-09-15T12:36:18.036Z,25.60
2022-09-15T12:38:48.660Z,25.63
2022-09-15T12:41:18.469Z,25.69
2022-09-15T12:43:55.449Z,25.77
2022-09-15T12:46:22.299Z,25.86
2022-09-15T12:48:50.451Z,25.91
2022-09-15T12:51:22.367Z,25.97
2022-09-15T12:53:52.203Z,25.98
2022-09-15T12:56:24.377Z,26.00
2022-09-15T12:58:51.675Z,26.03
2022-09-15T13:01:18.803Z,26.08
2022-09-15T13:03:45.750Z,26.15
2022-09-15T13:06:18.629Z,26.27
2022-09-15T13:09:08.472Z,26.32
2022-09-15T13:14:16.091Z,26.02
2022-09-15T13:16:46.294Z,25.95
2022-09-15T13:19:36.488Z,25.85
2022-09-15T13:22:06.123Z,25.72
2022-09-15T13:24:51.376Z,25.64
2022-09-15T13:31:52.843Z,25.50
2022-09-15T13:40:35.746Z,25.41
2022-09-15T13:43:25.825Z,25.41
2022-09-15T13:45:58.254Z,25.40
2022-09-15T13:48:50.275Z,25.40
2022-09-15T13:51:24.552Z,25.34
2022-09-15T13:53:56.768Z,25.29
2022-09-15T13:56:32.282Z,25.27
2022-09-15T13:59:10.129Z,25.29
2022-09-15T14:01:43.505Z,25.35
2022-09-15T14:04:16.092Z,25.40
2022-09-15T14:06:44.961Z,25.41
2022-09-15T14:09:32.784Z,25.44
2022-09-15T14:12:04.473Z,25.43
2022-09-15T14:14:38.343Z,25.39
2022-09-15T14:17:19.229Z,25.34
2022-09-15T14:19:54.710Z,25.29
2022-09-15T14:25:16.546Z,25.23
2022-09-15T14:27:44.568Z,25.24
2022-09-15T14:30:32.565Z,25.24
2022-09-15T14:33:01.620Z,25.22
2022-09-15T14:35:33.287Z,25.21
2022-09-15T14:37:59.896Z,25.21
2022-09-15T14:40:29.532Z,25.20
2022-09-15T14:42:57.409Z,25.19
2022-09-15T14:48:30.212Z,25.18
2022-09-15T14:51:01.988Z,25.18
2022-09-15T14:53:34.487Z,25.17
2022-09-15T14:56:08.478Z,25.16
2022-09-15T14:58:38.463Z,25.12
2022-09-15T15:01:23.663Z,25.05
2022-09-15T15:04:01.751Z,24.94
2022-09-15T15:06:36.796Z,24.88
2022-09-15T15:09:06.786Z,24.79
2022-09-15T15:11:34.347Z,24.72
2022-09-15T15:14:10.915Z,24.64
2022-09-15T15:16:48.814Z,24.57
2022-09-15T15:19:33.892Z,24.51
2022-09-15T15:22:12.439Z,24.46
2022-09-15T15:24:42.839Z,24.41
2022-09-15T15:27:29.445Z,24.36
2022-09-15T15:29:56.222Z,24.28
2022-09-15T15:32:32.832Z,24.22
2022-09-15T15:35:07.454Z,24.14
2022-09-15T15:37:34.600Z,24.09
2022-09-15T15:40:04.553Z,24.03
2022-09-15T15:42:31.350Z,23.98
2022-09-15T15:45:16.514Z,23.92
2022-09-15T15:47:43.224Z,23.88
2022-09-15T15:50:13.959Z,23.85
2022-09-15T15:52:41.330Z,23.81
2022-09-15T15:55:12.670Z,23.74
2022-09-15T15:57:42.315Z,23.66
2022-09-15T16:00:23.865Z,23.57
2022-09-15T16:02:50.889Z,23.50
2022-09-15T16:05:21.573Z,23.43
2022-09-15T16:07:50.209Z,23.35
2022-09-15T16:10:18.574Z,23.30
2022-09-15T16:12:50.142Z,23.23
2022-09-15T16:15:18.391Z,23.18
2022-09-15T16:17:47.228Z,23.14
2022-09-15T16:20:24.472Z,23.07
2022-09-15T16:23:16.370Z,22.96
2022-09-15T16:25:54.688Z,22.78
2022-09-15T16:28:21.326Z,22.63
2022-09-15T16:30:47.844Z,22.47
2022-09-15T16:33:15.164Z,22.34
2022-09-15T16:35:50.341Z,22.20
2022-09-15T16:44:24.729Z,21.87
2022-09-15T16:46:51.384Z,21.80
2022-09-15T16:49:18.116Z,21.75
2022-09-15T16:51:50.766Z,21.68
2022-09-15T16:54:19.286Z,21.62
2022-09-15T16:56:46.029Z,21.50
2022-09-15T16:59:37.502Z,21.37
2022-09-15T17:02:29.429Z,21.26
2022-09-15T17:04:56.850Z,21.19
2022-09-15T17:07:58.395Z,21.14
2022-09-15T17:10:27.968Z,21.09
2022-09-15T17:12:58.036Z,21.05
2022-09-15T17:15:27.406Z,21.00
2022-09-15T17:18:19.369Z,20.96
2022-09-15T17:20:46.668Z,20.92
2022-09-15T17:26:31.499Z,20.85
2022-09-15T17:28:58.353Z,20.85
2022-09-15T17:31:25.195Z,20.84
2022-09-15T17:33:54.960Z,20.83
2022-09-15T17:44:56.664Z,20.77
2022-09-15T17:47:23.285Z,20.75
2022-09-15T17:49:49.836Z,20.73
2022-09-15T17:52:19.506Z,20.73
2022-09-15T17:58:53.256Z,20.71
2022-09-15T18:01:20.075Z,20.71
2022-09-15T18:04:11.899Z,20.70
2022-09-15T18:06:41.188Z,20.69
2022-09-15T18:09:36.265Z,20.69
2022-09-15T18:21:22.930Z,20.67
2022-09-15T18:23:49.699Z,20.64
2022-09-15T18:26:16.186Z,20.60
2022-09-15T18:28:42.899Z,20.54
2022-09-15T18:31:12.045Z,20.50
2022-09-15T18:33:38.920Z,20.47
2022-09-15T18:36:06.236Z,20.38
2022-09-15T18:38:33.272Z,20.25
2022-09-15T18:41:03.193Z,20.20
2022-09-15T18:43:29.998Z,20.17
2022-09-15T18:46:25.859Z,20.20
2022-09-15T18:48:53.118Z,20.21
2022-09-15T18:51:24.401Z,20.22
2022-09-15T18:54:01.440Z,20.18
2022-09-15T18:56:53.132Z,20.15
2022-09-15T19:03:44.461Z,20.04
2022-09-15T19:24:47.075Z,19.86
2022-09-15T19:27:13.666Z,19.84
2022-09-15T19:29:43.174Z,19.83
2022-09-15T19:32:10.985Z,19.82
2022-09-15T19:34:38.593Z,19.80
2022-09-15T19:37:10.690Z,19.81
2022-09-15T19:43:57.049Z,19.84
2022-09-15T19:46:24.300Z,19.86
2022-09-15T19:48:51.765Z,19.88
2022-09-15T19:51:21.971Z,19.89
2022-09-15T19:53:52.943Z,19.91
2022-09-15T19:56:25.654Z,19.93
2022-09-15T19:58:55.119Z,19.96
2022-09-15T20:01:30.971Z,19.99
2022-09-15T20:03:58.897Z,20.01
2022-09-15T20:06:31.672Z,20.02
2022-09-15T20:08:59.639Z,20.03
2022-09-15T20:11:37.817Z,20.02
2022-09-15T20:14:18.311Z,20.03
2022-09-15T20:16:49.567Z,20.01
2022-09-15T20:19:27.536Z,19.98
2022-09-15T20:22:30.021Z,19.95
2022-09-15T20:24:57.511Z,19.92
2022-09-15T20:27:27.220Z,19.92
2022-09-15T20:29:56.360Z,19.94
2022-09-15T20:32:28.686Z,19.95
2022-09-15T20:35:02.452Z,19.96
2022-09-15T20:37:31.238Z,19.96
2022-09-15T20:40:02.366Z,19.97
2022-09-15T20:42:29.178Z,19.99
2022-09-15T20:44:55.764Z,20.00
2022-09-15T20:47:30.937Z,20.01
2022-09-15T20:49:57.567Z,20.03
2022-09-15T20:52:27.975Z,20.03
2022-09-15T20:54:56.600Z,20.04
2022-09-15T20:57:34.788Z,20.04
2022-09-15T21:00:02.127Z,20.05
2022-09-15T21:02:28.775Z,20.05
2022-09-15T21:04:55.329Z,20.04
2022-09-15T21:07:21.953Z,20.04
2022-09-15T21:09:48.528Z,20.02
2022-09-15T21:12:15.636Z,20.00
2022-09-15T21:14:42.778Z,19.97
2022-09-15T21:17:10.591Z,19.94
2022-09-15T21:19:37.432Z,19.91
2022-09-15T21:22:04.112Z,19.91
2022-09-15T21:24:30.792Z,19.89
2022-09-15T21:27:15.743Z,19.89
2022-09-15T21:29:42.619Z,19.87
2022-09-15T21:32:09.283Z,19.87
2022-09-15T21:34:35.985Z,19.87
2022-09-15T21:37:02.532Z,19.86
2022-09-15T21:39:29.184Z,19.86
2022-09-15T21:41:55.872Z,19.84
2022-09-15T21:44:22.668Z,19.83
2022-09-15T21:46:49.469Z,19.82
2022-09-15T21:49:26.370Z,19.82
2022-09-15T21:52:07.736Z,19.81
2022-09-15T21:54:39.751Z,19.79
2022-09-15T21:57:09.628Z,19.78
2022-09-15T21:59:36.602Z,19.77
2022-09-15T22:02:07.023Z,19.75
2022-09-15T22:04:37.591Z,19.73
2022-09-15T22:07:14.002Z,19.71
2022-09-15T22:09:42.219Z,19.67
2022-09-15T22:12:12.668Z,19.65
2022-09-15T22:14:45.906Z,19.63
2022-09-15T22:17:13.419Z,19.61
2022-09-15T22:19:40.225Z,19.57
2022-09-15T22:22:09.455Z,19.55
2022-09-15T22:24:36.252Z,19.50
2022-09-15T22:27:03.117Z,19.46
2022-09-15T22:29:29.925Z,19.42
2022-09-15T22:42:54.856Z,19.34
2022-09-15T22:45:54.522Z,19.31
2022-09-15T23:40:29.261Z,18.74
2022-09-15T23:43:01.900Z,18.72
2022-09-15T23:46:02.753Z,18.71
